createdAt,value
2023-12-08T00:02:24.740Z,-3.40
2023-12-08T00:04:51.704Z,-3.40
2023-12-08T00:07:18.302Z,-3.38
2023-12-08T00:09:45.007Z,-3.40
2023-12-08T00:12:11.779Z,-3.40
2023-12-08T00:14:38.439Z,-3.40
2023-12-08T00:17:05.761Z,-3.50
2023-12-08T00:19:32.906Z,-3.50
2023-12-08T00:21:59.706Z,-3.50
2023-12-08T00:24:26.310Z,-3.50
2023-12-08T00:26:52.961Z,-3.50
2023-12-08T00:29:20.605Z,-3.50
2023-12-08T00:31:48.252Z,-3.50
2023-12-08T00:34:15.463Z,-3.50
2023-12-08T00:36:43.008Z,-3.50
2023-12-08T00:39:09.850Z,-3.50
2023-12-08T00:41:36.755Z,-3.50
2023-12-08T00:44:03.696Z,-3.50
2023-12-08T00:46:31.163Z,-3.48
2023-12-08T00:48:57.921Z,-3.50
2023-12-08T00:51:24.719Z,-3.50
2023-12-08T00:53:51.382Z,-3.50
2023-12-08T00:56:19.025Z,-3.50
2023-12-08T00:58:45.675Z,-3.50
2023-12-08T01:01:13.435Z,-3.50
2023-12-08T01:03:40.216Z,-3.50
2023-12-08T01:06:07.347Z,-3.50
2023-12-08T01:08:34.078Z,-3.50
2023-12-08T01:11:00.708Z,-3.50
2023-12-08T01:13:27.310Z,-3.50
2023-12-08T01:15:53.989Z,-3.50
2023-12-08T01:18:20.793Z,-3.42
2023-12-08T01:20:47.589Z,-3.40
2023-12-08T01:23:14.320Z,-3.40
2023-12-08T01:25:41.068Z,-3.30
2023-12-08T01:28:07.731Z,-3.30
2023-12-08T01:30:34.503Z,-3.30
2023-12-08T01:33:01.295Z,-3.30
2023-12-08T01:35:28.605Z,-3.30
2023-12-08T01:37:55.304Z,-3.24
2023-12-08T01:40:22.004Z,-3.20
2023-12-08T01:42:49.352Z,-3.20
2023-12-08T01:45:17.266Z,-3.18
2023-12-08T01:47:45.158Z,-3.12
2023-12-08T01:50:13.566Z,-3.10
2023-12-08T01:52:40.697Z,-3.10
2023-12-08T01:55:08.132Z,-3.10
2023-12-08T01:57:35.344Z,-3.10
2023-12-08T02:00:02.167Z,-3.12
2023-12-08T02:02:35.956Z,-3.20
2023-12-08T02:05:04.115Z,-3.18
2023-12-08T02:07:32.946Z,-3.18
2023-12-08T02:09:59.702Z,-3.20
2023-12-08T02:12:26.336Z,-3.20
2023-12-08T02:14:53.574Z,-3.20
2023-12-08T02:17:27.905Z,-3.20
2023-12-08T02:19:55.798Z,-3.20
2023-12-08T02:22:25.589Z,-3.20
2023-12-08T02:24:52.688Z,-3.30
2023-12-08T02:27:19.855Z,-3.30
2023-12-08T02:29:46.726Z,-3.30
2023-12-08T02:32:32.210Z,-3.30
2023-12-08T02:35:02.794Z,-3.30
2023-12-08T02:37:33.423Z,-3.30
2023-12-08T02:40:01.573Z,-3.30
2023-12-08T02:42:28.609Z,-3.30
2023-12-08T02:44:55.314Z,-3.30
2023-12-08T02:47:22.073Z,-3.30
2023-12-08T02:49:48.815Z,-3.32
2023-12-08T02:52:15.819Z,-3.36
2023-12-08T02:54:42.468Z,-3.40
2023-12-08T02:57:09.184Z,-3.32
2023-12-08T02:59:35.981Z,-3.30
2023-12-08T03:02:02.742Z,-3.30
2023-12-08T03:04:29.496Z,-3.30
2023-12-08T03:06:56.206Z,-3.22
2023-12-08T03:09:22.833Z,-3.20
2023-12-08T03:11:49.467Z,-3.20
2023-12-08T03:14:16.277Z,-3.10
2023-12-08T03:16:42.953Z,-3.10
2023-12-08T03:19:09.620Z,-3.00
2023-12-08T03:21:36.485Z,-3.00
2023-12-08T03:24:03.218Z,-2.90
2023-12-08T03:26:30.108Z,-2.90
2023-12-08T03:28:56.698Z,-2.80
2023-12-08T03:31:26.004Z,-2.80
2023-12-08T03:33:52.846Z,-2.80
2023-12-08T03:36:19.690Z,-2.70
2023-12-08T03:38:46.662Z,-2.70
2023-12-08T03:41:13.303Z,-2.70
2023-12-08T03:43:40.454Z,-2.60
2023-12-08T03:46:07.886Z,-2.60
2023-12-08T03:48:37.857Z,-2.60
2023-12-08T03:51:05.885Z,-2.50
2023-12-08T03:53:33.337Z,-2.50
2023-12-08T03:56:00.242Z,-2.50
2023-12-08T03:58:28.424Z,-2.48
2023-12-08T04:00:55.289Z,-2.42
2023-12-08T04:03:22.305Z,-2.40
2023-12-08T04:05:49.516Z,-2.40
2023-12-08T04:08:16.301Z,-2.40
2023-12-08T04:10:43.173Z,-2.40
2023-12-08T04:13:09.827Z,-2.40
2023-12-08T04:15:36.606Z,-2.40
2023-12-08T04:18:03.438Z,-2.46
2023-12-08T04:20:30.317Z,-2.50
2023-12-08T04:22:56.973Z,-2.50
2023-12-08T04:25:24.010Z,-2.50
2023-12-08T04:27:50.682Z,-2.50
2023-12-08T04:30:17.494Z,-2.50
2023-12-08T04:32:44.343Z,-2.58
2023-12-08T04:35:11.078Z,-2.60
2023-12-08T04:37:37.774Z,-2.60
2023-12-08T04:40:04.912Z,-2.60
2023-12-08T04:42:32.127Z,-2.60
2023-12-08T04:44:59.682Z,-2.60
2023-12-08T04:47:26.743Z,-2.60
2023-12-08T04:49:54.670Z,-2.60
2023-12-08T04:52:21.841Z,-2.60
2023-12-08T04:54:48.559Z,-2.60
2023-12-08T04:57:15.614Z,-2.60
2023-12-08T04:59:42.522Z,-2.60
2023-12-08T05:02:09.284Z,-2.60
2023-12-08T05:04:36.003Z,-2.64
2023-12-08T05:07:02.624Z,-2.60
2023-12-08T05:09:29.259Z,-2.60
2023-12-08T05:11:56.294Z,-2.60
2023-12-08T05:14:23.720Z,-2.60
2023-12-08T05:16:50.415Z,-2.60
2023-12-08T05:19:18.185Z,-2.60
2023-12-08T05:21:44.993Z,-2.60
2023-12-08T05:24:11.800Z,-2.58
2023-12-08T05:26:38.649Z,-2.50
2023-12-08T05:29:05.488Z,-2.50
2023-12-08T05:31:32.146Z,-2.52
2023-12-08T05:33:59.394Z,-2.50
2023-12-08T05:36:26.518Z,-2.52
2023-12-08T05:38:53.274Z,-2.50
2023-12-08T05:41:19.947Z,-2.54
2023-12-08T05:43:47.609Z,-2.60
2023-12-08T05:46:15.077Z,-2.60
2023-12-08T05:48:41.846Z,-2.60
2023-12-08T05:51:08.782Z,-2.60
2023-12-08T05:53:35.910Z,-2.60
2023-12-08T05:56:04.356Z,-2.60
2023-12-08T05:58:31.073Z,-2.60
2023-12-08T06:00:57.824Z,-2.60
2023-12-08T06:03:24.502Z,-2.60
2023-12-08T06:05:51.231Z,-2.62
2023-12-08T06:08:17.972Z,-2.60
2023-12-08T06:10:44.621Z,-2.54
2023-12-08T06:13:11.253Z,-2.58
2023-12-08T06:15:38.150Z,-2.50
2023-12-08T06:18:04.953Z,-2.50
2023-12-08T06:20:31.684Z,-2.50
2023-12-08T06:22:58.426Z,-2.42
2023-12-08T06:25:25.125Z,-2.40
2023-12-08T06:27:51.815Z,-2.40
2023-12-08T06:30:20.650Z,-2.30
2023-12-08T06:32:47.462Z,-2.30
2023-12-08T06:35:14.348Z,-2.30
2023-12-08T06:37:40.968Z,-2.20
2023-12-08T06:40:08.937Z,-2.20
2023-12-08T06:42:35.588Z,-2.20
2023-12-08T06:45:03.808Z,-2.10
2023-12-08T06:47:30.549Z,-2.10
2023-12-08T06:49:57.401Z,-2.10
2023-12-08T06:52:24.076Z,-2.10
2023-12-08T06:54:50.905Z,-2.08
2023-12-08T06:57:17.606Z,-2.00
2023-12-08T06:59:44.599Z,-2.00
2023-12-08T07:02:11.371Z,-1.98
2023-12-08T07:04:38.314Z,-1.92
2023-12-08T07:07:05.085Z,-1.90
2023-12-08T07:09:31.777Z,-1.90
2023-12-08T07:11:59.003Z,-1.88
2023-12-08T07:14:25.857Z,-1.80
2023-12-08T07:16:52.795Z,-1.76
2023-12-08T07:19:20.114Z,-1.70
2023-12-08T07:21:48.198Z,-1.70
2023-12-08T07:24:15.489Z,-1.60
2023-12-08T07:26:42.277Z,-1.58
2023-12-08T07:29:08.959Z,-1.50
2023-12-08T07:31:35.730Z,-1.40
2023-12-08T07:34:03.255Z,-1.30
2023-12-08T07:36:30.216Z,-1.30
2023-12-08T07:38:57.375Z,-1.22
2023-12-08T07:41:24.145Z,-1.18
2023-12-08T07:43:53.589Z,-1.10
2023-12-08T07:46:20.241Z,-1.04
2023-12-08T07:48:46.990Z,-1.00
2023-12-08T07:51:13.884Z,-0.90
2023-12-08T07:53:40.694Z,-0.80
2023-12-08T07:56:07.629Z,-0.70
2023-12-08T07:58:34.414Z,-0.70
2023-12-08T08:01:01.244Z,-0.60
2023-12-08T08:03:29.045Z,-0.50
2023-12-08T08:05:56.216Z,-0.40
2023-12-08T08:08:22.995Z,-0.34
2023-12-08T08:10:49.741Z,-0.30
2023-12-08T08:13:16.785Z,-0.16
2023-12-08T08:15:43.493Z,-0.06
2023-12-08T08:18:10.204Z,0.00
2023-12-08T08:20:37.914Z,0.10
2023-12-08T08:23:04.667Z,0.16
2023-12-08T08:25:32.745Z,0.22
2023-12-08T08:28:01.391Z,0.30
2023-12-08T08:30:28.365Z,0.50
2023-12-08T08:32:54.987Z,0.60
2023-12-08T08:35:21.712Z,0.70
2023-12-08T08:37:48.425Z,0.86
2023-12-08T08:40:16.277Z,1.00
2023-12-08T08:42:42.951Z,1.10
2023-12-08T08:45:10.086Z,1.20
2023-12-08T08:47:36.864Z,1.20
2023-12-08T08:50:03.889Z,1.20
2023-12-08T08:52:31.389Z,1.20
2023-12-08T08:54:58.320Z,1.28
2023-12-08T08:57:25.042Z,1.30
2023-12-08T08:59:52.049Z,1.30
2023-12-08T09:02:18.826Z,1.40
2023-12-08T09:04:45.586Z,1.50
2023-12-08T09:07:12.477Z,1.60
2023-12-08T09:09:42.836Z,1.70
2023-12-08T09:12:11.306Z,1.80
2023-12-08T09:14:39.576Z,1.90
2023-12-08T09:17:07.000Z,2.00
2023-12-08T09:19:33.933Z,2.04
2023-12-08T09:22:00.676Z,2.10
2023-12-08T09:24:27.636Z,2.20
2023-12-08T09:26:54.469Z,2.26
2023-12-08T09:29:22.248Z,2.30
2023-12-08T09:31:49.325Z,2.40
2023-12-08T09:34:17.833Z,2.50
2023-12-08T09:37:24.371Z,2.60
2023-12-08T09:39:34.172Z,2.62
2023-12-08T09:42:08.335Z,2.70
2023-12-08T09:44:35.876Z,2.70
2023-12-08T09:47:09.795Z,2.80
2023-12-08T09:49:42.300Z,2.80
2023-12-08T09:52:10.531Z,2.80
2023-12-08T09:54:37.207Z,2.80
2023-12-08T09:57:06.347Z,2.84
2023-12-08T09:59:33.185Z,2.90
2023-12-08T10:01:59.883Z,2.90
2023-12-08T10:04:27.598Z,2.90
2023-12-08T10:06:57.617Z,2.90
2023-12-08T10:09:24.321Z,2.90
2023-12-08T10:11:51.713Z,3.00
2023-12-08T10:14:19.883Z,3.00
2023-12-08T10:16:48.224Z,3.10
2023-12-08T10:19:15.511Z,3.16
2023-12-08T10:21:42.476Z,3.24
2023-12-08T10:24:10.715Z,3.36
2023-12-08T10:26:37.408Z,3.50
2023-12-08T10:29:05.299Z,3.60
2023-12-08T10:31:33.071Z,3.70
2023-12-08T10:34:00.037Z,3.90
2023-12-08T10:36:26.885Z,4.00
2023-12-08T10:38:53.804Z,4.10
2023-12-08T10:41:20.575Z,4.20
2023-12-08T10:43:47.356Z,4.30
2023-12-08T10:46:14.172Z,4.40
2023-12-08T10:48:41.559Z,4.50
2023-12-08T10:51:14.700Z,4.50
2023-12-08T10:53:41.973Z,4.60
2023-12-08T10:56:13.213Z,4.68
2023-12-08T10:58:43.537Z,4.70
2023-12-08T11:01:15.696Z,4.76
2023-12-08T11:03:51.934Z,4.80
2023-12-08T11:06:30.089Z,4.82
2023-12-08T11:08:59.086Z,4.88
2023-12-08T11:11:27.797Z,4.88
2023-12-08T11:14:10.807Z,4.90
2023-12-08T11:16:49.658Z,4.92
2023-12-08T11:19:21.118Z,5.00
2023-12-08T11:21:48.535Z,4.98
2023-12-08T11:24:16.096Z,4.90
2023-12-08T11:26:57.227Z,4.90
2023-12-08T11:29:32.970Z,4.90
2023-12-08T11:32:11.111Z,4.98
2023-12-08T11:34:47.259Z,5.00
2023-12-08T11:37:13.986Z,5.02
2023-12-08T11:39:45.782Z,5.04
2023-12-08T11:42:15.074Z,5.00
2023-12-08T11:44:47.433Z,5.00
2023-12-08T11:47:17.186Z,5.04
2023-12-08T11:49:45.724Z,5.00
2023-12-08T11:52:27.022Z,5.00
2023-12-08T11:55:22.145Z,5.00
2023-12-08T11:58:04.397Z,5.00
2023-12-08T12:00:36.022Z,4.90
2023-12-08T12:03:04.464Z,4.90
2023-12-08T12:05:32.604Z,4.86
2023-12-08T12:08:00.152Z,4.80
2023-12-08T12:10:34.290Z,4.80
2023-12-08T12:13:06.375Z,4.80
2023-12-08T12:15:37.301Z,4.80
2023-12-08T12:18:04.991Z,4.80
2023-12-08T12:20:37.497Z,4.72
2023-12-08T12:23:04.205Z,4.70
2023-12-08T12:25:31.007Z,4.70
2023-12-08T12:27:59.000Z,4.60
2023-12-08T12:30:26.033Z,4.50
2023-12-08T12:32:53.180Z,4.50
2023-12-08T12:35:20.099Z,4.40
2023-12-08T12:37:47.593Z,4.30
2023-12-08T12:40:14.388Z,4.30
2023-12-08T12:42:43.135Z,4.22
2023-12-08T12:45:11.192Z,4.20
2023-12-08T12:47:38.800Z,4.10
2023-12-08T12:50:08.726Z,4.00
2023-12-08T12:52:38.043Z,4.00
2023-12-08T12:55:23.796Z,3.98
2023-12-08T12:57:51.015Z,3.90
2023-12-08T13:00:39.201Z,3.90
2023-12-08T13:03:11.303Z,3.84
2023-12-08T13:05:49.700Z,3.80
2023-12-08T13:08:18.246Z,3.80
2023-12-08T13:10:46.264Z,3.70
2023-12-08T13:13:15.710Z,3.60
2023-12-08T13:15:43.499Z,3.58
2023-12-08T13:18:10.878Z,3.50
2023-12-08T13:20:41.464Z,3.40
2023-12-08T13:23:08.812Z,3.32
2023-12-08T13:25:35.596Z,3.30
2023-12-08T13:28:02.335Z,3.30
2023-12-08T13:30:29.248Z,3.20
2023-12-08T13:32:56.753Z,3.10
2023-12-08T13:35:23.876Z,3.10
2023-12-08T13:37:50.870Z,3.00
2023-12-08T13:40:17.933Z,3.00
2023-12-08T13:42:44.747Z,2.96
2023-12-08T13:45:12.466Z,2.90
2023-12-08T13:47:39.901Z,2.90
2023-12-08T13:50:06.743Z,2.90
2023-12-08T13:52:33.468Z,2.90
2023-12-08T13:55:02.808Z,2.90
2023-12-08T13:57:29.694Z,2.90
2023-12-08T13:59:56.661Z,2.90
2023-12-08T14:02:23.268Z,2.90
2023-12-08T14:04:50.154Z,2.88
2023-12-08T14:07:17.354Z,2.80
2023-12-08T14:09:45.167Z,2.80
2023-12-08T14:12:11.915Z,2.80
2023-12-08T14:14:38.706Z,2.70
2023-12-08T14:17:05.732Z,2.70
2023-12-08T14:19:32.947Z,2.60
2023-12-08T14:22:00.051Z,2.58
2023-12-08T14:24:27.350Z,2.50
2023-12-08T14:26:54.755Z,2.40
2023-12-08T14:29:23.158Z,2.40
2023-12-08T14:31:51.104Z,2.34
2023-12-08T14:34:18.259Z,2.30
2023-12-08T14:36:47.533Z,2.20
2023-12-08T14:39:14.681Z,2.20
2023-12-08T14:41:42.469Z,2.10
2023-12-08T14:44:09.457Z,2.10
2023-12-08T14:46:36.652Z,2.00
2023-12-08T14:49:05.758Z,1.98
2023-12-08T14:51:32.773Z,1.90
2023-12-08T14:53:59.537Z,1.80
2023-12-08T14:56:27.276Z,1.80
2023-12-08T14:58:54.970Z,1.70
2023-12-08T15:01:22.377Z,1.62
2023-12-08T15:03:51.365Z,1.60
2023-12-08T15:06:19.341Z,1.50
2023-12-08T15:08:47.118Z,1.48
2023-12-08T15:11:13.857Z,1.40
2023-12-08T15:13:40.529Z,1.30
2023-12-08T15:16:07.933Z,1.30
2023-12-08T15:18:35.170Z,1.20
2023-12-08T15:21:27.805Z,1.12
2023-12-08T15:23:58.281Z,1.10
2023-12-08T15:26:26.175Z,1.00
2023-12-08T15:28:52.965Z,1.00
2023-12-08T15:31:20.071Z,0.90
2023-12-08T15:33:47.198Z,0.90
2023-12-08T15:36:14.613Z,0.80
2023-12-08T15:38:44.825Z,0.80
2023-12-08T15:41:14.241Z,0.70
2023-12-08T15:43:41.266Z,0.70
2023-12-08T15:46:08.283Z,0.62
2023-12-08T15:48:35.554Z,0.60
2023-12-08T15:51:02.477Z,0.52
2023-12-08T15:53:30.135Z,0.50
2023-12-08T15:56:00.339Z,0.40
2023-12-08T15:58:27.021Z,0.40
2023-12-08T16:00:54.770Z,0.40
2023-12-08T16:03:21.537Z,0.40
2023-12-08T16:05:48.458Z,0.40
2023-12-08T16:08:15.212Z,0.40
2023-12-08T16:10:41.893Z,0.40
2023-12-08T16:13:08.751Z,0.40
2023-12-08T16:15:37.025Z,0.40
2023-12-08T16:18:03.978Z,0.40
2023-12-08T16:20:30.949Z,0.40
2023-12-08T16:22:57.865Z,0.40
2023-12-08T16:25:24.535Z,0.40
2023-12-08T16:27:52.219Z,0.40
2023-12-08T16:30:18.957Z,0.40
2023-12-08T16:32:45.875Z,0.40
2023-12-08T16:35:14.457Z,0.40
2023-12-08T16:37:41.199Z,0.40
2023-12-08T16:40:08.653Z,0.40
2023-12-08T16:42:35.579Z,0.40
2023-12-08T16:45:03.308Z,0.38
2023-12-08T16:47:30.290Z,0.38
2023-12-08T16:49:57.030Z,0.36
2023-12-08T16:52:24.051Z,0.30
2023-12-08T16:54:51.863Z,0.28
2023-12-08T16:57:18.552Z,0.30
2023-12-08T16:59:47.203Z,0.30
2023-12-08T17:02:13.858Z,0.30
2023-12-08T17:04:40.506Z,0.28
2023-12-08T17:07:07.266Z,0.20
2023-12-08T17:09:34.087Z,0.20
2023-12-08T17:12:00.823Z,0.20
2023-12-08T17:14:27.686Z,0.20
2023-12-08T17:16:54.383Z,0.20
2023-12-08T17:19:21.083Z,0.20
2023-12-08T17:21:48.233Z,0.20
2023-12-08T17:24:14.986Z,0.20
2023-12-08T17:26:42.890Z,0.20
2023-12-08T17:29:10.453Z,0.20
2023-12-08T17:31:38.874Z,0.20
2023-12-08T17:34:12.788Z,0.22
2023-12-08T17:36:46.013Z,0.30
2023-12-08T17:39:12.889Z,0.30
2023-12-08T17:41:42.015Z,0.26
2023-12-08T17:44:10.095Z,0.20
2023-12-08T17:46:40.437Z,0.20
2023-12-08T17:49:07.320Z,0.20
2023-12-08T17:51:34.199Z,0.20
2023-12-08T17:54:00.916Z,0.24
2023-12-08T17:56:27.585Z,0.30
2023-12-08T17:58:54.281Z,0.30
2023-12-08T18:01:21.024Z,0.30
2023-12-08T18:03:48.890Z,0.32
2023-12-08T18:06:21.817Z,0.40
2023-12-08T18:11:26.184Z,0.40
2023-12-08T18:13:55.787Z,0.50
2023-12-08T18:16:22.720Z,0.50
2023-12-08T18:18:50.410Z,0.60
2023-12-08T18:21:31.329Z,0.60
2023-12-08T18:23:59.285Z,0.60
2023-12-08T18:26:30.192Z,0.70
2023-12-08T18:29:08.047Z,0.70
2023-12-08T18:31:39.325Z,0.70
2023-12-08T18:34:06.763Z,0.78
2023-12-08T18:36:36.884Z,0.80
2023-12-08T18:39:04.853Z,0.80
2023-12-08T18:41:32.402Z,0.80
2023-12-08T18:44:00.138Z,0.80
2023-12-08T18:46:27.189Z,0.80
2023-12-08T18:48:58.682Z,0.80
2023-12-08T18:51:26.467Z,0.80
2023-12-08T18:53:55.994Z,0.82
2023-12-08T18:56:23.132Z,0.86
2023-12-08T18:58:51.674Z,0.90
2023-12-08T19:01:18.528Z,0.90
2023-12-08T19:03:45.232Z,0.90
2023-12-08T19:06:12.648Z,0.90
2023-12-08T19:08:39.948Z,0.90
2023-12-08T19:11:06.698Z,0.90
2023-12-08T19:13:33.625Z,0.90
2023-12-08T19:16:00.292Z,0.90
2023-12-08T19:18:27.053Z,0.90
2023-12-08T19:20:53.920Z,0.90
2023-12-08T19:23:23.623Z,0.90
2023-12-08T19:25:53.209Z,0.90
2023-12-08T19:28:20.882Z,0.90
2023-12-08T19:30:49.289Z,0.90
2023-12-08T19:33:16.534Z,0.90
2023-12-08T19:35:44.094Z,0.90
2023-12-08T19:38:11.894Z,0.90
2023-12-08T19:40:38.693Z,0.90
2023-12-08T19:43:05.353Z,0.90
2023-12-08T19:45:32.001Z,0.90
2023-12-08T19:47:58.808Z,0.90
2023-12-08T19:50:26.614Z,0.90
2023-12-08T19:52:53.288Z,0.96
2023-12-08T19:55:20.052Z,1.00
2023-12-08T19:57:46.757Z,1.00
2023-12-08T20:00:15.216Z,1.00
2023-12-08T20:02:42.401Z,1.00
2023-12-08T20:05:09.790Z,1.10
2023-12-08T20:07:36.529Z,1.10
2023-12-08T20:10:03.459Z,1.10
2023-12-08T20:12:30.683Z,1.10
2023-12-08T20:14:57.342Z,1.10
2023-12-08T20:17:25.124Z,1.10
2023-12-08T20:19:52.483Z,1.14
2023-12-08T20:22:22.304Z,1.20
2023-12-08T20:24:50.017Z,1.20
2023-12-08T20:27:16.816Z,1.20
2023-12-08T20:29:43.527Z,1.20
2023-12-08T20:32:10.317Z,1.20
2023-12-08T20:34:38.396Z,1.20
2023-12-08T20:37:06.269Z,1.20
2023-12-08T20:39:32.951Z,1.20
2023-12-08T20:41:59.673Z,1.24
2023-12-08T20:44:27.861Z,1.30
2023-12-08T20:46:56.653Z,1.30
2023-12-08T20:49:24.547Z,1.30
2023-12-08T20:51:51.413Z,1.30
2023-12-08T20:54:18.309Z,1.30
2023-12-08T20:56:46.235Z,1.30
2023-12-08T20:59:13.051Z,1.30
2023-12-08T21:01:40.821Z,1.32
2023-12-08T21:04:07.646Z,1.38
2023-12-08T21:06:34.957Z,1.40
2023-12-08T21:09:02.821Z,1.40
2023-12-08T21:11:31.284Z,1.40
2023-12-08T21:13:59.689Z,1.40
2023-12-08T21:16:27.316Z,1.40
2023-12-08T21:18:55.129Z,1.40
2023-12-08T21:21:22.516Z,1.40
2023-12-08T21:23:49.484Z,1.40
2023-12-08T21:26:16.253Z,1.40
2023-12-08T21:28:43.326Z,1.40
2023-12-08T21:31:10.109Z,1.40
2023-12-08T21:33:36.896Z,1.40
2023-12-08T21:36:04.416Z,1.40
2023-12-08T21:38:31.206Z,1.40
2023-12-08T21:40:57.961Z,1.40
2023-12-08T21:43:24.669Z,1.40
2023-12-08T21:45:51.459Z,1.40
2023-12-08T21:48:18.235Z,1.32
2023-12-08T21:50:45.006Z,1.30
2023-12-08T21:53:11.702Z,1.30
2023-12-08T21:55:38.384Z,1.30
2023-12-08T21:58:05.056Z,1.30
2023-12-08T22:00:31.777Z,1.30
2023-12-08T22:02:59.061Z,1.32
2023-12-08T22:05:25.873Z,1.40
2023-12-08T22:07:52.710Z,1.40
2023-12-08T22:10:19.381Z,1.40
2023-12-08T22:12:46.282Z,1.40
2023-12-08T22:15:12.929Z,1.40
2023-12-08T22:17:39.705Z,1.40
2023-12-08T22:20:07.248Z,1.40
2023-12-08T22:22:33.918Z,1.40
2023-12-08T22:25:11.489Z,1.40
2023-12-08T22:27:38.439Z,1.40
2023-12-08T22:30:06.719Z,1.40
2023-12-08T22:32:34.680Z,1.40
2023-12-08T22:35:02.565Z,1.40
2023-12-08T22:37:29.708Z,1.40
2023-12-08T22:39:56.520Z,1.40
2023-12-08T22:42:23.665Z,1.40
2023-12-08T22:44:50.447Z,1.40
2023-12-08T22:47:17.137Z,1.40
2023-12-08T22:49:44.882Z,1.40
2023-12-08T22:52:13.304Z,1.40
2023-12-08T22:54:40.053Z,1.40
2023-12-08T22:57:06.810Z,1.40
2023-12-08T22:59:33.502Z,1.40
2023-12-08T23:02:00.256Z,1.38
2023-12-08T23:04:27.057Z,1.30
2023-12-08T23:06:54.766Z,1.20
2023-12-08T23:09:21.418Z,1.20
2023-12-08T23:11:48.159Z,1.20
2023-12-08T23:14:14.983Z,1.20
2023-12-08T23:16:41.589Z,1.20
2023-12-08T23:19:08.362Z,1.20
2023-12-08T23:21:35.070Z,1.20
2023-12-08T23:24:01.716Z,1.20
2023-12-08T23:26:28.398Z,1.20
2023-12-08T23:28:55.168Z,1.28
2023-12-08T23:31:21.969Z,1.24
2023-12-08T23:33:49.009Z,1.30
2023-12-08T23:36:15.885Z,1.30
2023-12-08T23:38:42.576Z,1.30
2023-12-08T23:41:09.252Z,1.30
2023-12-08T23:43:35.832Z,1.30
2023-12-08T23:46:02.475Z,1.40
2023-12-08T23:48:29.250Z,1.40
2023-12-08T23:50:57.092Z,1.38
2023-12-08T23:53:23.726Z,1.30
2023-12-08T23:55:50.378Z,1.26
2023-12-08T23:58:17.150Z,1.20
